sensor_id;sensor_type;location;lat;lon;timestamp;pressure;altitude;pressure_sealevel;temperature;humidity
76815;BME280;65768;49.906;19.384;2023-07-08T00:01:28;98857.19;;;16.65;64.76
76815;BME280;65768;49.906;19.384;2023-07-08T00:03:57;98858.13;;;16.60;64.88
76815;BME280;65768;49.906;19.384;2023-07-08T00:06:27;98857.67;;;16.55;65.34
76815;BME280;65768;49.906;19.384;2023-07-08T00:08:55;98859.67;;;16.50;65.54
76815;BME280;65768;49.906;19.384;2023-07-08T00:11:25;98858.36;;;16.43;65.02
76815;BME280;65768;49.906;19.384;2023-07-08T00:13:54;98858.92;;;16.40;65.79
76815;BME280;65768;49.906;19.384;2023-07-08T00:16:23;98856.34;;;16.35;65.94
76815;BME280;65768;49.906;19.384;2023-07-08T00:18:54;98855.72;;;16.29;66.34
76815;BME280;65768;49.906;19.384;2023-07-08T00:21:22;98856.63;;;16.27;65.75
76815;BME280;65768;49.906;19.384;2023-07-08T00:23:51;98857.19;;;16.25;66.16
76815;BME280;65768;49.906;19.384;2023-07-08T00:26:23;98857.59;;;16.18;65.82
76815;BME280;65768;49.906;19.384;2023-07-08T00:28:53;98858.79;;;16.08;65.93
76815;BME280;65768;49.906;19.384;2023-07-08T00:31:23;98857.44;;;16.02;66.29
76815;BME280;65768;49.906;19.384;2023-07-08T00:33:54;98856.80;;;15.97;67.11
76815;BME280;65768;49.906;19.384;2023-07-08T00:36:25;98858.85;;;15.85;67.76
76815;BME280;65768;49.906;19.384;2023-07-08T00:38:54;98854.84;;;15.83;68.71
76815;BME280;65768;49.906;19.384;2023-07-08T00:43:58;98867.29;;;15.68;68.34
76815;BME280;65768;49.906;19.384;2023-07-08T00:51:39;98859.39;;;15.68;68.24
76815;BME280;65768;49.906;19.384;2023-07-08T00:54:17;98858.50;;;15.65;68.36
76815;BME280;65768;49.906;19.384;2023-07-08T00:56:55;98859.41;;;15.61;68.29
76815;BME280;65768;49.906;19.384;2023-07-08T00:59:32;98858.52;;;15.62;68.71
76815;BME280;65768;49.906;19.384;2023-07-08T01:02:04;98855.31;;;15.66;68.77
76815;BME280;65768;49.906;19.384;2023-07-08T01:04:39;98853.77;;;15.64;68.44
76815;BME280;65768;49.906;19.384;2023-07-08T01:07:10;98847.77;;;15.66;68.17
76815;BME280;65768;49.906;19.384;2023-07-08T01:09:44;98848.12;;;15.68;68.20
76815;BME280;65768;49.906;19.384;2023-07-08T01:12:17;98852.23;;;15.56;68.70
76815;BME280;65768;49.906;19.384;2023-07-08T01:14:47;98848.64;;;15.46;69.79
76815;BME280;65768;49.906;19.384;2023-07-08T01:17:16;98838.64;;;15.46;69.95
76815;BME280;65768;49.906;19.384;2023-07-08T01:19:45;98837.13;;;15.39;69.94
76815;BME280;65768;49.906;19.384;2023-07-08T01:22:14;98844.23;;;15.31;69.93
76815;BME280;65768;49.906;19.384;2023-07-08T01:24:44;98834.64;;;15.21;69.75
76815;BME280;65768;49.906;19.384;2023-07-08T01:27:17;98832.61;;;15.12;70.35
76815;BME280;65768;49.906;19.384;2023-07-08T01:29:48;98837.16;;;15.14;70.18
76815;BME280;65768;49.906;19.384;2023-07-08T01:32:17;98838.79;;;15.07;70.81
76815;BME280;65768;49.906;19.384;2023-07-08T01:34:48;98835.61;;;14.85;71.52
76815;BME280;65768;49.906;19.384;2023-07-08T01:37:34;98843.16;;;14.86;72.28
76815;BME280;65768;49.906;19.384;2023-07-08T01:42:47;98833.64;;;14.91;71.47
76815;BME280;65768;49.906;19.384;2023-07-08T01:45:38;98832.59;;;14.92;71.58
76815;BME280;65768;49.906;19.384;2023-07-08T01:48:13;98838.61;;;14.82;72.43
76815;BME280;65768;49.906;19.384;2023-07-08T01:50:47;98834.90;;;14.86;71.73
76815;BME280;65768;49.906;19.384;2023-07-08T01:53:21;98831.39;;;14.90;71.78
76815;BME280;65768;49.906;19.384;2023-07-08T01:56:12;98835.40;;;14.92;71.69
76815;BME280;65768;49.906;19.384;2023-07-08T01:58:42;98835.84;;;14.80;71.09
76815;BME280;65768;49.906;19.384;2023-07-08T02:01:21;98837.84;;;14.69;71.96
76815;BME280;65768;49.906;19.384;2023-07-08T02:03:52;98838.23;;;14.60;72.24
76815;BME280;65768;49.906;19.384;2023-07-08T02:06:20;98835.06;;;14.61;72.70
76815;BME280;65768;49.906;19.384;2023-07-08T02:08:55;98838.96;;;14.55;72.07
76815;BME280;65768;49.906;19.384;2023-07-08T02:11:27;98842.13;;;14.49;72.62
76815;BME280;65768;49.906;19.384;2023-07-08T02:16:46;98843.19;;;14.45;71.92
76815;BME280;65768;49.906;19.384;2023-07-08T02:19:17;98841.15;;;14.33;71.90
76815;BME280;65768;49.906;19.384;2023-07-08T02:21:48;98841.30;;;14.37;72.98
76815;BME280;65768;49.906;19.384;2023-07-08T02:24:31;98845.30;;;14.44;72.73
76815;BME280;65768;49.906;19.384;2023-07-08T02:27:00;98845.96;;;14.58;71.82
76815;BME280;65768;49.906;19.384;2023-07-08T02:29:28;98852.21;;;14.71;71.27
76815;BME280;65768;49.906;19.384;2023-07-08T02:31:56;98854.63;;;14.77;71.09
76815;BME280;65768;49.906;19.384;2023-07-08T02:34:42;98853.61;;;14.71;70.30
76815;BME280;65768;49.906;19.384;2023-07-08T02:37:11;98853.30;;;14.64;70.84
76815;BME280;65768;49.906;19.384;2023-07-08T02:39:39;98859.27;;;14.63;71.09
76815;BME280;65768;49.906;19.384;2023-07-08T02:42:09;98863.48;;;14.64;69.94
76815;BME280;65768;49.906;19.384;2023-07-08T02:44:38;98865.04;;;14.67;70.11
76815;BME280;65768;49.906;19.384;2023-07-08T02:47:12;98868.33;;;14.76;70.98
76815;BME280;65768;49.906;19.384;2023-07-08T02:49:43;98866.55;;;14.79;71.13
76815;BME280;65768;49.906;19.384;2023-07-08T02:52:12;98865.85;;;14.79;70.77
76815;BME280;65768;49.906;19.384;2023-07-08T02:54:42;98866.39;;;14.78;69.83
76815;BME280;65768;49.906;19.384;2023-07-08T02:57:10;98865.15;;;14.78;70.84
76815;BME280;65768;49.906;19.384;2023-07-08T02:59:39;98867.77;;;14.80;70.52
76815;BME280;65768;49.906;19.384;2023-07-08T03:02:07;98867.78;;;14.78;70.76
76815;BME280;65768;49.906;19.384;2023-07-08T03:04:38;98871.11;;;14.81;70.74
76815;BME280;65768;49.906;19.384;2023-07-08T03:07:10;98869.01;;;14.78;71.36
76815;BME280;65768;49.906;19.384;2023-07-08T03:09:39;98869.17;;;14.80;71.60
76815;BME280;65768;49.906;19.384;2023-07-08T03:12:10;98871.26;;;14.84;71.73
76815;BME280;65768;49.906;19.384;2023-07-08T03:14:38;98873.34;;;14.88;72.03
76815;BME280;65768;49.906;19.384;2023-07-08T03:17:06;98876.84;;;14.91;71.95
76815;BME280;65768;49.906;19.384;2023-07-08T03:19:34;98876.10;;;14.96;71.64
76815;BME280;65768;49.906;19.384;2023-07-08T03:22:03;98873.06;;;15.04;71.58
76815;BME280;65768;49.906;19.384;2023-07-08T03:24:33;98872.48;;;15.10;71.20
76815;BME280;65768;49.906;19.384;2023-07-08T03:27:02;98874.88;;;15.19;70.78
76815;BME280;65768;49.906;19.384;2023-07-08T03:29:33;98872.02;;;15.26;70.50
76815;BME280;65768;49.906;19.384;2023-07-08T03:32:01;98865.96;;;15.36;70.54
76815;BME280;65768;49.906;19.384;2023-07-08T03:34:31;98868.36;;;15.44;70.37
76815;BME280;65768;49.906;19.384;2023-07-08T03:37:00;98866.35;;;15.52;69.97
76815;BME280;65768;49.906;19.384;2023-07-08T03:39:28;98863.98;;;15.61;69.86
76815;BME280;65768;49.906;19.384;2023-07-08T03:41:59;98866.21;;;15.70;69.60
76815;BME280;65768;49.906;19.384;2023-07-08T03:44:28;98868.48;;;15.72;69.20
76815;BME280;65768;49.906;19.384;2023-07-08T03:46:59;98868.88;;;15.64;69.49
76815;BME280;65768;49.906;19.384;2023-07-08T03:49:28;98868.52;;;15.66;69.24
76815;BME280;65768;49.906;19.384;2023-07-08T03:51:56;98868.12;;;15.50;69.59
76815;BME280;65768;49.906;19.384;2023-07-08T03:54:25;98866.54;;;15.30;70.07
76815;BME280;65768;49.906;19.384;2023-07-08T03:56:53;98869.23;;;15.22;70.71
76815;BME280;65768;49.906;19.384;2023-07-08T03:59:27;98871.08;;;15.32;69.86
76815;BME280;65768;49.906;19.384;2023-07-08T04:01:55;98870.94;;;15.50;68.88
76815;BME280;65768;49.906;19.384;2023-07-08T04:04:23;98875.95;;;15.61;68.98
76815;BME280;65768;49.906;19.384;2023-07-08T04:06:52;98874.98;;;15.73;69.10
76815;BME280;65768;49.906;19.384;2023-07-08T04:09:21;98874.22;;;15.78;68.37
76815;BME280;65768;49.906;19.384;2023-07-08T04:11:49;98875.41;;;15.83;68.58
76815;BME280;65768;49.906;19.384;2023-07-08T04:14:18;98871.73;;;15.97;69.28
76815;BME280;65768;49.906;19.384;2023-07-08T04:16:50;98869.46;;;16.12;68.13
76815;BME280;65768;49.906;19.384;2023-07-08T04:19:20;98866.17;;;16.22;67.33
76815;BME280;65768;49.906;19.384;2023-07-08T04:21:50;98869.21;;;16.33;66.44
76815;BME280;65768;49.906;19.384;2023-07-08T04:24:22;98863.17;;;16.38;66.24
76815;BME280;65768;49.906;19.384;2023-07-08T04:26:52;98857.11;;;16.43;66.62
76815;BME280;65768;49.906;19.384;2023-07-08T04:29:22;98856.11;;;16.53;66.01
76815;BME280;65768;49.906;19.384;2023-07-08T04:31:50;98856.88;;;16.61;65.91
76815;BME280;65768;49.906;19.384;2023-07-08T04:34:18;98857.26;;;16.72;66.12
76815;BME280;65768;49.906;19.384;2023-07-08T04:36:48;98857.00;;;16.80;67.62
76815;BME280;65768;49.906;19.384;2023-07-08T04:39:16;98861.82;;;16.87;67.73
76815;BME280;65768;49.906;19.384;2023-07-08T04:41:44;98861.16;;;16.85;67.80
76815;BME280;65768;49.906;19.384;2023-07-08T04:44:12;98855.90;;;16.94;67.03
76815;BME280;65768;49.906;19.384;2023-07-08T04:46:48;98852.30;;;17.12;66.25
76815;BME280;65768;49.906;19.384;2023-07-08T04:49:18;98843.29;;;17.24;65.67
76815;BME280;65768;49.906;19.384;2023-07-08T04:51:47;98845.92;;;17.35;66.12
76815;BME280;65768;49.906;19.384;2023-07-08T04:54:15;98846.58;;;17.49;65.72
76815;BME280;65768;49.906;19.384;2023-07-08T04:56:46;98848.89;;;17.67;65.65
76815;BME280;65768;49.906;19.384;2023-07-08T04:59:17;98845.58;;;17.86;64.85
76815;BME280;65768;49.906;19.384;2023-07-08T05:01:46;98844.23;;;18.01;64.49
76815;BME280;65768;49.906;19.384;2023-07-08T05:04:16;98847.81;;;18.08;65.84
76815;BME280;65768;49.906;19.384;2023-07-08T05:06:45;98848.80;;;18.20;65.49
76815;BME280;65768;49.906;19.384;2023-07-08T05:09:14;98849.36;;;18.27;64.50
76815;BME280;65768;49.906;19.384;2023-07-08T05:11:42;98843.05;;;18.34;63.99
76815;BME280;65768;49.906;19.384;2023-07-08T05:14:11;98840.05;;;18.42;63.53
76815;BME280;65768;49.906;19.384;2023-07-08T05:16:40;98841.89;;;18.55;63.23
76815;BME280;65768;49.906;19.384;2023-07-08T05:19:08;98841.42;;;18.67;64.28
76815;BME280;65768;49.906;19.384;2023-07-08T05:21:37;98842.98;;;18.79;64.30
76815;BME280;65768;49.906;19.384;2023-07-08T05:24:07;98842.52;;;18.98;64.01
76815;BME280;65768;49.906;19.384;2023-07-08T05:26:36;98845.74;;;19.19;63.47
76815;BME280;65768;49.906;19.384;2023-07-08T05:29:04;98847.17;;;19.40;62.99
76815;BME280;65768;49.906;19.384;2023-07-08T05:31:33;98843.84;;;19.60;62.41
76815;BME280;65768;49.906;19.384;2023-07-08T05:34:02;98839.49;;;19.79;61.99
76815;BME280;65768;49.906;19.384;2023-07-08T05:36:30;98840.07;;;19.96;60.37
76815;BME280;65768;49.906;19.384;2023-07-08T05:38:58;98844.95;;;20.18;59.14
76815;BME280;65768;49.906;19.384;2023-07-08T05:41:27;98844.47;;;20.41;57.86
76815;BME280;65768;49.906;19.384;2023-07-08T05:43:55;98849.46;;;20.64;58.10
76815;BME280;65768;49.906;19.384;2023-07-08T05:46:23;98848.83;;;20.91;57.88
76815;BME280;65768;49.906;19.384;2023-07-08T05:48:51;98847.87;;;21.04;57.07
76815;BME280;65768;49.906;19.384;2023-07-08T05:51:20;98846.34;;;21.19;56.87
76815;BME280;65768;49.906;19.384;2023-07-08T05:53:49;98844.20;;;21.36;57.13
76815;BME280;65768;49.906;19.384;2023-07-08T05:56:17;98843.70;;;21.52;55.73
76815;BME280;65768;49.906;19.384;2023-07-08T05:58:45;98842.20;;;21.74;55.56
76815;BME280;65768;49.906;19.384;2023-07-08T06:01:13;98841.98;;;21.80;55.60
76815;BME280;65768;49.906;19.384;2023-07-08T06:03:41;98842.95;;;22.03;53.96
76815;BME280;65768;49.906;19.384;2023-07-08T06:06:09;98843.20;;;22.32;54.91
76815;BME280;65768;49.906;19.384;2023-07-08T06:08:38;98843.71;;;22.55;53.99
76815;BME280;65768;49.906;19.384;2023-07-08T06:11:06;98844.46;;;22.82;52.08
76815;BME280;65768;49.906;19.384;2023-07-08T06:13:34;98847.45;;;23.02;52.23
76815;BME280;65768;49.906;19.384;2023-07-08T06:16:02;98848.45;;;23.29;53.22
76815;BME280;65768;49.906;19.384;2023-07-08T06:18:31;98849.55;;;23.59;52.00
76815;BME280;65768;49.906;19.384;2023-07-08T06:20:59;98851.16;;;23.76;50.21
76815;BME280;65768;49.906;19.384;2023-07-08T06:23:29;98849.30;;;23.78;50.51
76815;BME280;65768;49.906;19.384;2023-07-08T06:25:58;98853.79;;;23.89;50.01
76815;BME280;65768;49.906;19.384;2023-07-08T06:28:26;98851.41;;;23.87;49.12
76815;BME280;65768;49.906;19.384;2023-07-08T06:30:54;98851.14;;;24.01;49.18
76815;BME280;65768;49.906;19.384;2023-07-08T06:33:23;98851.86;;;24.13;49.28
76815;BME280;65768;49.906;19.384;2023-07-08T06:35:51;98857.16;;;24.30;48.51
76815;BME280;65768;49.906;19.384;2023-07-08T06:38:19;98854.48;;;24.34;47.09
76815;BME280;65768;49.906;19.384;2023-07-08T06:40:47;98859.78;;;24.31;46.74
76815;BME280;65768;49.906;19.384;2023-07-08T06:43:15;98856.90;;;24.68;45.42
76815;BME280;65768;49.906;19.384;2023-07-08T06:45:44;98851.70;;;24.71;46.23
76815;BME280;65768;49.906;19.384;2023-07-08T06:48:12;98846.86;;;24.99;45.60
76815;BME280;65768;49.906;19.384;2023-07-08T06:50:49;98849.85;;;25.03;45.60
76815;BME280;65768;49.906;19.384;2023-07-08T06:53:17;98850.33;;;25.23;45.74
76815;BME280;65768;49.906;19.384;2023-07-08T06:55:45;98846.73;;;25.42;44.55
76815;BME280;65768;49.906;19.384;2023-07-08T06:58:14;98845.13;;;25.74;44.20
76815;BME280;65768;49.906;19.384;2023-07-08T07:00:44;98846.33;;;25.92;43.82
76815;BME280;65768;49.906;19.384;2023-07-08T07:03:12;98850.96;;;25.99;42.63
76815;BME280;65768;49.906;19.384;2023-07-08T07:05:41;98846.91;;;26.01;44.35
76815;BME280;65768;49.906;19.384;2023-07-08T07:08:09;98847.51;;;26.17;42.30
76815;BME280;65768;49.906;19.384;2023-07-08T07:10:37;98844.60;;;26.28;42.51
76815;BME280;65768;49.906;19.384;2023-07-08T07:13:06;98846.13;;;26.13;43.06
76815;BME280;65768;49.906;19.384;2023-07-08T07:15:34;98845.40;;;26.37;46.74
76815;BME280;65768;49.906;19.384;2023-07-08T07:18:04;98848.70;;;26.35;45.69
76815;BME280;65768;49.906;19.384;2023-07-08T07:20:33;98852.80;;;26.49;44.78
76815;BME280;65768;49.906;19.384;2023-07-08T07:23:02;98853.20;;;26.45;44.68
76815;BME280;65768;49.906;19.384;2023-07-08T07:25:30;98850.35;;;26.58;45.00
76815;BME280;65768;49.906;19.384;2023-07-08T07:27:58;98847.11;;;26.58;44.55
76815;BME280;65768;49.906;19.384;2023-07-08T07:30:26;98845.30;;;26.72;43.85
76815;BME280;65768;49.906;19.384;2023-07-08T07:32:58;98844.66;;;26.76;43.23
76815;BME280;65768;49.906;19.384;2023-07-08T07:35:27;98842.91;;;26.79;43.95
76815;BME280;65768;49.906;19.384;2023-07-08T07:37:55;98834.13;;;27.05;43.50
76815;BME280;65768;49.906;19.384;2023-07-08T07:40:24;98833.15;;;27.29;43.90
76815;BME280;65768;49.906;19.384;2023-07-08T07:42:52;98831.17;;;27.29;41.00
76815;BME280;65768;49.906;19.384;2023-07-08T07:45:20;98839.17;;;27.42;41.59
76815;BME280;65768;49.906;19.384;2023-07-08T07:47:50;98836.98;;;27.49;37.81
76815;BME280;65768;49.906;19.384;2023-07-08T07:50:18;98843.98;;;27.58;38.40
76815;BME280;65768;49.906;19.384;2023-07-08T07:52:47;98845.17;;;27.68;36.31
76815;BME280;65768;49.906;19.384;2023-07-08T07:55:15;98847.30;;;27.44;36.65
76815;BME280;65768;49.906;19.384;2023-07-08T07:57:43;98851.09;;;27.50;37.90
76815;BME280;65768;49.906;19.384;2023-07-08T08:00:14;98849.73;;;27.45;38.37
76815;BME280;65768;49.906;19.384;2023-07-08T08:02:42;98848.54;;;27.63;37.15
76815;BME280;65768;49.906;19.384;2023-07-08T08:05:10;98844.05;;;27.87;36.21
76815;BME280;65768;49.906;19.384;2023-07-08T08:07:38;98839.55;;;27.82;37.89
76815;BME280;65768;49.906;19.384;2023-07-08T08:10:06;98839.83;;;28.09;39.78
76815;BME280;65768;49.906;19.384;2023-07-08T08:12:35;98840.91;;;28.01;37.68
76815;BME280;65768;49.906;19.384;2023-07-08T08:15:03;98842.66;;;27.77;34.51
76815;BME280;65768;49.906;19.384;2023-07-08T08:17:35;98842.55;;;28.09;35.06
76815;BME280;65768;49.906;19.384;2023-07-08T08:20:03;98843.77;;;28.24;33.81
76815;BME280;65768;49.906;19.384;2023-07-08T08:22:31;98843.41;;;28.39;34.37
76815;BME280;65768;49.906;19.384;2023-07-08T08:24:59;98842.16;;;28.53;33.01
76815;BME280;65768;49.906;19.384;2023-07-08T08:27:28;98840.15;;;28.51;33.92
76815;BME280;65768;49.906;19.384;2023-07-08T08:29:56;98838.61;;;28.47;31.72
76815;BME280;65768;49.906;19.384;2023-07-08T08:32:24;98838.37;;;28.68;33.29
76815;BME280;65768;49.906;19.384;2023-07-08T08:34:52;98833.90;;;28.67;33.22
76815;BME280;65768;49.906;19.384;2023-07-08T08:37:20;98835.75;;;28.61;31.48
76815;BME280;65768;49.906;19.384;2023-07-08T08:39:48;98830.61;;;28.94;33.41
76815;BME280;65768;49.906;19.384;2023-07-08T08:42:27;98825.52;;;29.20;32.23
76815;BME280;65768;49.906;19.384;2023-07-08T08:44:56;98830.59;;;29.11;26.50
76815;BME280;65768;49.906;19.384;2023-07-08T08:47:37;98827.52;;;28.91;26.82
76815;BME280;65768;49.906;19.384;2023-07-08T08:53:13;98822.79;;;28.81;27.67
76815;BME280;65768;49.906;19.384;2023-07-08T08:55:43;98823.84;;;29.04;27.99
76815;BME280;65768;49.906;19.384;2023-07-08T09:01:19;98825.17;;;29.19;28.08
76815;BME280;65768;49.906;19.384;2023-07-08T09:04:03;98822.36;;;28.77;27.48
76815;BME280;65768;49.906;19.384;2023-07-08T09:06:35;98820.91;;;28.74;28.78
76815;BME280;65768;49.906;19.384;2023-07-08T09:09:09;98817.14;;;29.24;29.78
76815;BME280;65768;49.906;19.384;2023-07-08T09:14:24;98818.15;;;29.41;26.19
76815;BME280;65768;49.906;19.384;2023-07-08T09:19:37;98821.21;;;29.19;30.15
76815;BME280;65768;49.906;19.384;2023-07-08T09:24:43;98816.56;;;29.49;26.45
76815;BME280;65768;49.906;19.384;2023-07-08T09:27:12;98815.21;;;29.50;27.58
76815;BME280;65768;49.906;19.384;2023-07-08T09:29:40;98812.23;;;29.17;25.82
76815;BME280;65768;49.906;19.384;2023-07-08T09:32:23;98810.00;;;29.45;28.39
76815;BME280;65768;49.906;19.384;2023-07-08T09:34:52;98810.04;;;29.66;27.22
76815;BME280;65768;49.906;19.384;2023-07-08T09:37:30;98809.90;;;29.70;27.09
76815;BME280;65768;49.906;19.384;2023-07-08T09:40:03;98808.11;;;29.62;26.14
76815;BME280;65768;49.906;19.384;2023-07-08T09:42:32;98810.50;;;29.46;27.46
76815;BME280;65768;49.906;19.384;2023-07-08T09:45:10;98808.91;;;29.48;28.03
76815;BME280;65768;49.906;19.384;2023-07-08T09:47:39;98806.04;;;29.98;26.89
76815;BME280;65768;49.906;19.384;2023-07-08T09:50:20;98800.13;;;30.13;28.31
76815;BME280;65768;49.906;19.384;2023-07-08T09:52:51;98803.80;;;30.07;29.03
76815;BME280;65768;49.906;19.384;2023-07-08T09:55:20;98803.60;;;29.81;27.72
76815;BME280;65768;49.906;19.384;2023-07-08T09:57:50;98804.27;;;29.79;29.92
76815;BME280;65768;49.906;19.384;2023-07-08T10:00:28;98804.23;;;29.40;28.61
76815;BME280;65768;49.906;19.384;2023-07-08T10:03:05;98802.70;;;29.41;27.92
76815;BME280;65768;49.906;19.384;2023-07-08T10:05:40;98799.95;;;29.60;29.39
76815;BME280;65768;49.906;19.384;2023-07-08T10:08:19;98799.83;;;30.02;28.55
76815;BME280;65768;49.906;19.384;2023-07-08T10:16:26;98797.80;;;29.34;29.03
76815;BME280;65768;49.906;19.384;2023-07-08T10:18:55;98794.61;;;29.39;28.28
76815;BME280;65768;49.906;19.384;2023-07-08T10:21:39;98792.27;;;29.60;27.43
76815;BME280;65768;49.906;19.384;2023-07-08T10:27:22;98791.38;;;30.17;26.11
76815;BME280;65768;49.906;19.384;2023-07-08T10:35:30;98777.71;;;30.33;26.80
76815;BME280;65768;49.906;19.384;2023-07-08T10:38:50;98774.86;;;30.64;26.93
76815;BME280;65768;49.906;19.384;2023-07-08T10:44:13;98770.89;;;30.62;28.55
76815;BME280;65768;49.906;19.384;2023-07-08T10:47:00;98773.27;;;30.01;29.53
76815;BME280;65768;49.906;19.384;2023-07-08T11:01:20;98758.88;;;29.70;30.46
76815;BME280;65768;49.906;19.384;2023-07-08T11:06:40;98762.70;;;30.66;29.08
76815;BME280;65768;49.906;19.384;2023-07-08T11:09:17;98754.30;;;30.53;28.98
76815;BME280;65768;49.906;19.384;2023-07-08T11:11:55;98754.00;;;30.37;27.74
76815;BME280;65768;49.906;19.384;2023-07-08T11:14:30;98753.05;;;30.35;28.78
76815;BME280;65768;49.906;19.384;2023-07-08T11:17:15;98750.75;;;30.52;27.52
76815;BME280;65768;49.906;19.384;2023-07-08T11:22:52;98743.44;;;30.59;25.95
76815;BME280;65768;49.906;19.384;2023-07-08T11:25:24;98745.83;;;30.50;29.39
76815;BME280;65768;49.906;19.384;2023-07-08T11:27:56;98743.77;;;30.59;27.53
76815;BME280;65768;49.906;19.384;2023-07-08T11:30:28;98738.38;;;31.10;27.78
76815;BME280;65768;49.906;19.384;2023-07-08T11:33:08;98738.55;;;30.34;26.54
76815;BME280;65768;49.906;19.384;2023-07-08T11:35:41;98735.98;;;30.20;27.67
76815;BME280;65768;49.906;19.384;2023-07-08T11:38:14;98737.59;;;30.65;28.43
76815;BME280;65768;49.906;19.384;2023-07-08T11:40:56;98738.44;;;30.80;26.73
76815;BME280;65768;49.906;19.384;2023-07-08T11:43:27;98739.15;;;30.97;27.35
76815;BME280;65768;49.906;19.384;2023-07-08T11:45:57;98740.60;;;30.99;27.73
76815;BME280;65768;49.906;19.384;2023-07-08T11:48:38;98736.38;;;31.01;26.26
76815;BME280;65768;49.906;19.384;2023-07-08T11:51:09;98733.35;;;31.12;26.53
76815;BME280;65768;49.906;19.384;2023-07-08T11:53:51;98731.44;;;31.14;24.57
76815;BME280;65768;49.906;19.384;2023-07-08T11:56:27;98737.58;;;30.30;25.15
76815;BME280;65768;49.906;19.384;2023-07-08T11:59:09;98731.75;;;29.88;26.43
76815;BME280;65768;49.906;19.384;2023-07-08T12:01:52;98724.69;;;29.96;25.73
76815;BME280;65768;49.906;19.384;2023-07-08T12:04:30;98722.38;;;30.44;25.78
76815;BME280;65768;49.906;19.384;2023-07-08T12:07:14;98727.41;;;30.98;26.97
76815;BME280;65768;49.906;19.384;2023-07-08T12:12:30;98722.38;;;31.57;25.29
76815;BME280;65768;49.906;19.384;2023-07-08T12:15:11;98715.16;;;31.36;25.10
76815;BME280;65768;49.906;19.384;2023-07-08T12:17:41;98716.89;;;31.30;24.30
76815;BME280;65768;49.906;19.384;2023-07-08T12:20:31;98717.02;;;31.82;25.69
76815;BME280;65768;49.906;19.384;2023-07-08T12:23:01;98713.91;;;32.12;24.95
76815;BME280;65768;49.906;19.384;2023-07-08T12:25:31;98714.38;;;31.99;24.97
76815;BME280;65768;49.906;19.384;2023-07-08T12:28:01;98714.11;;;31.73;24.99
76815;BME280;65768;49.906;19.384;2023-07-08T12:30:31;98708.00;;;32.00;24.92
76815;BME280;65768;49.906;19.384;2023-07-08T12:33:01;98706.17;;;32.07;25.24
76815;BME280;65768;49.906;19.384;2023-07-08T12:35:34;98706.09;;;31.88;25.68
76815;BME280;65768;49.906;19.384;2023-07-08T12:38:09;98697.19;;;31.72;24.36
76815;BME280;65768;49.906;19.384;2023-07-08T12:40:41;98695.11;;;32.03;23.88
76815;BME280;65768;49.906;19.384;2023-07-08T12:43:10;98692.95;;;32.30;24.52
76815;BME280;65768;49.906;19.384;2023-07-08T12:45:39;98696.64;;;32.27;24.58
76815;BME280;65768;49.906;19.384;2023-07-08T12:48:09;98697.25;;;32.55;24.08
76815;BME280;65768;49.906;19.384;2023-07-08T12:50:37;98702.36;;;32.23;24.07
76815;BME280;65768;49.906;19.384;2023-07-08T12:53:06;98699.64;;;32.50;23.57
76815;BME280;65768;49.906;19.384;2023-07-08T12:55:38;98693.14;;;32.94;23.34
76815;BME280;65768;49.906;19.384;2023-07-08T12:58:13;98694.86;;;32.24;22.61
76815;BME280;65768;49.906;19.384;2023-07-08T13:00:46;98693.39;;;32.41;22.54
76815;BME280;65768;49.906;19.384;2023-07-08T13:03:17;98686.95;;;32.83;23.76
76815;BME280;65768;49.906;19.384;2023-07-08T13:05:48;98681.58;;;33.22;23.10
76815;BME280;65768;49.906;19.384;2023-07-08T13:08:24;98683.46;;;33.02;22.96
76815;BME280;65768;49.906;19.384;2023-07-08T13:10:58;98678.45;;;33.05;20.98
76815;BME280;65768;49.906;19.384;2023-07-08T13:13:34;98674.56;;;33.11;22.38
76815;BME280;65768;49.906;19.384;2023-07-08T13:16:04;98671.95;;;32.94;23.57
76815;BME280;65768;49.906;19.384;2023-07-08T13:18:36;98668.40;;;33.24;22.95
76815;BME280;65768;49.906;19.384;2023-07-08T13:21:07;98670.21;;;33.32;24.00
76815;BME280;65768;49.906;19.384;2023-07-08T13:23:37;98671.30;;;33.45;24.18
76815;BME280;65768;49.906;19.384;2023-07-08T13:26:20;98672.38;;;33.02;23.51
76815;BME280;65768;49.906;19.384;2023-07-08T13:28:49;98670.79;;;33.38;23.62
76815;BME280;65768;49.906;19.384;2023-07-08T13:31:19;98668.09;;;33.48;22.79
76815;BME280;65768;49.906;19.384;2023-07-08T13:33:51;98669.09;;;33.80;23.95
76815;BME280;65768;49.906;19.384;2023-07-08T13:36:34;98668.65;;;34.16;22.95
76815;BME280;65768;49.906;19.384;2023-07-08T13:39:08;98665.71;;;34.12;23.20
76815;BME280;65768;49.906;19.384;2023-07-08T13:41:42;98663.29;;;33.64;22.83
76815;BME280;65768;49.906;19.384;2023-07-08T13:44:11;98663.88;;;33.42;23.59
76815;BME280;65768;49.906;19.384;2023-07-08T13:49:31;98660.15;;;33.69;22.73
76815;BME280;65768;49.906;19.384;2023-07-08T13:52:14;98659.20;;;33.65;22.41
76815;BME280;65768;49.906;19.384;2023-07-08T13:54:52;98656.38;;;34.22;22.65
76815;BME280;65768;49.906;19.384;2023-07-08T13:57:33;98656.48;;;33.86;22.80
76815;BME280;65768;49.906;19.384;2023-07-08T14:00:04;98658.48;;;34.03;21.61
76815;BME280;65768;49.906;19.384;2023-07-08T14:02:33;98658.11;;;34.09;21.77
76815;BME280;65768;49.906;19.384;2023-07-08T14:05:05;98657.26;;;34.64;22.12
76815;BME280;65768;49.906;19.384;2023-07-08T14:07:33;98652.94;;;35.15;20.36
76815;BME280;65768;49.906;19.384;2023-07-08T14:10:09;98655.56;;;34.87;20.41
76815;BME280;65768;49.906;19.384;2023-07-08T14:12:39;98657.13;;;34.54;21.07
76815;BME280;65768;49.906;19.384;2023-07-08T14:15:08;98656.58;;;34.52;21.45
76815;BME280;65768;49.906;19.384;2023-07-08T14:17:37;98652.48;;;34.59;20.12
76815;BME280;65768;49.906;19.384;2023-07-08T14:20:15;98657.79;;;37.26;19.45